createdAt,value
2022-12-23T00:03:19.867Z,12.18
2022-12-23T00:08:21.545Z,12.13
2022-12-23T00:13:41.849Z,11.50
2022-12-23T00:18:44.178Z,11.13
2022-12-23T00:23:46.802Z,11.38
2022-12-23T00:28:48.600Z,12.13
2022-12-23T00:33:51.282Z,11.70
2022-12-23T00:39:11.767Z,11.52
2022-12-23T00:44:13.104Z,13.45
2022-12-23T00:49:34.342Z,15.02
2022-12-23T00:54:36.083Z,14.40
2022-12-23T00:59:37.558Z,12.68
2022-12-23T01:04:57.531Z,13.68
2022-12-23T01:09:58.976Z,16.05
2022-12-23T01:15:00.476Z,17.50
2022-12-23T01:20:02.021Z,17.17
2022-12-23T01:25:03.457Z,15.57
2022-12-23T01:30:05.300Z,15.50
2022-12-23T01:35:07.029Z,17.65
2022-12-23T01:40:08.973Z,18.17
2022-12-23T01:45:28.590Z,16.35
2022-12-23T01:50:35.109Z,14.35
2022-12-23T01:55:39.262Z,10.27
2022-12-23T02:01:00.304Z,11.75
2022-12-23T02:06:22.192Z,12.90
2022-12-23T02:11:26.524Z,13.23
2022-12-23T02:16:28.752Z,13.63
2022-12-23T02:21:42.072Z,11.30
2022-12-23T02:26:55.445Z,9.73
2022-12-23T02:32:05.925Z,9.05
2022-12-23T02:37:16.576Z,8.38
2022-12-23T02:42:24.227Z,8.15
2022-12-23T02:47:48.700Z,8.90
2022-12-23T02:52:50.935Z,9.10
2022-12-23T02:57:55.083Z,8.82
2022-12-23T03:02:56.652Z,10.18
2022-12-23T03:08:00.172Z,8.25
2022-12-23T03:13:26.883Z,9.20
2022-12-23T03:18:37.351Z,8.48
2022-12-23T03:23:42.047Z,9.05
2022-12-23T03:28:46.089Z,9.02
2022-12-23T03:33:50.288Z,8.25
2022-12-23T03:38:55.875Z,10.27
2022-12-23T03:44:05.488Z,10.23
2022-12-23T03:49:14.224Z,9.40
2022-12-23T03:54:18.448Z,9.50
2022-12-23T03:59:21.753Z,10.70
2022-12-23T04:04:30.010Z,9.57
2022-12-23T04:09:31.499Z,9.45
2022-12-23T04:14:34.360Z,9.07
2022-12-23T04:19:35.827Z,9.75
2022-12-23T04:24:37.245Z,10.68
2022-12-23T04:29:38.869Z,10.43
2022-12-23T04:34:40.307Z,11.30
2022-12-23T04:39:41.768Z,10.65
2022-12-23T04:44:43.159Z,10.68
2022-12-23T04:49:44.584Z,11.05
2022-12-23T04:54:46.645Z,10.52
2022-12-23T04:59:48.202Z,11.38
2022-12-23T05:04:50.145Z,10.52
2022-12-23T05:09:51.543Z,10.98
2022-12-23T05:14:52.927Z,11.45
2022-12-23T05:19:54.305Z,11.07
2022-12-23T05:24:55.703Z,9.55
2022-12-23T05:29:57.259Z,9.80
2022-12-23T05:34:58.643Z,11.52
2022-12-23T05:40:00.108Z,9.85
2022-12-23T05:45:01.739Z,10.82
2022-12-23T05:50:03.461Z,11.88
2022-12-23T05:55:07.183Z,10.63
2022-12-23T06:00:09.776Z,11.50
2022-12-23T06:05:11.411Z,10.82
2022-12-23T06:10:12.847Z,12.68
2022-12-23T06:15:15.679Z,12.13
2022-12-23T06:20:20.795Z,12.68
2022-12-23T06:25:22.756Z,12.70
2022-12-23T06:30:24.165Z,14.55
2022-12-23T06:35:25.571Z,12.50
2022-12-23T06:40:29.096Z,13.95
2022-12-23T06:45:30.642Z,13.85
2022-12-23T06:50:32.074Z,12.10
2022-12-23T06:55:33.580Z,12.70
2022-12-23T07:00:35.299Z,13.70
2022-12-23T07:05:37.840Z,13.10
2022-12-23T07:10:39.408Z,12.75
2022-12-23T07:15:40.795Z,10.73
2022-12-23T07:20:42.325Z,9.80
2022-12-23T07:25:43.721Z,9.63
2022-12-23T07:30:45.245Z,10.60
2022-12-23T07:35:46.655Z,8.90
2022-12-23T07:40:48.961Z,9.93
2022-12-23T07:45:57.323Z,9.18
2022-12-23T07:51:02.051Z,7.35
2022-12-23T07:56:03.599Z,6.38
2022-12-23T08:01:07.788Z,5.95
2022-12-23T08:06:12.402Z,4.97
2022-12-23T08:11:15.635Z,5.10
2022-12-23T08:16:18.630Z,5.47
2022-12-23T08:21:20.383Z,5.13
2022-12-23T08:26:22.685Z,5.00
2022-12-23T08:31:25.775Z,3.80
2022-12-23T08:36:31.569Z,3.20
2022-12-23T08:41:35.625Z,3.60
2022-12-23T08:46:37.594Z,3.08
2022-12-23T08:51:39.237Z,4.03
2022-12-23T08:56:41.649Z,2.92
2022-12-23T09:01:43.267Z,2.63
2022-12-23T09:06:46.987Z,3.42
2022-12-23T09:11:48.363Z,3.13
2022-12-23T09:16:50.593Z,3.53
2022-12-23T09:21:52.002Z,3.00
2022-12-23T09:26:53.427Z,3.08
2022-12-23T09:31:55.153Z,2.67
2022-12-23T09:36:56.657Z,2.67
2022-12-23T09:42:03.534Z,3.00
2022-12-23T09:47:06.232Z,2.90
2022-12-23T09:52:10.544Z,2.67
2022-12-23T09:57:22.079Z,3.15
2022-12-23T10:02:39.081Z,3.15
2022-12-23T10:07:44.254Z,3.67
2022-12-23T10:12:49.586Z,3.10
2022-12-23T10:17:53.014Z,3.30
2022-12-23T10:22:55.331Z,4.28
2022-12-23T10:27:56.739Z,3.78
2022-12-23T10:32:58.980Z,4.68
2022-12-23T10:38:07.866Z,4.00
2022-12-23T10:43:12.025Z,4.00
2022-12-23T10:48:32.915Z,4.05
2022-12-23T10:53:39.071Z,4.45
2022-12-23T10:58:42.328Z,4.00
2022-12-23T11:03:53.670Z,4.25
2022-12-23T11:08:56.538Z,4.20
2022-12-23T11:13:57.914Z,5.22
2022-12-23T11:19:03.730Z,4.70
2022-12-23T11:24:09.956Z,6.60
2022-12-23T11:29:13.144Z,5.82
2022-12-23T11:34:18.601Z,6.13
2022-12-23T11:39:25.433Z,8.02
2022-12-23T11:44:41.529Z,6.35
2022-12-23T11:49:47.384Z,6.00
2022-12-23T11:54:56.566Z,6.10
2022-12-23T12:00:00.184Z,6.53
2022-12-23T12:05:08.622Z,5.53
2022-12-23T12:10:13.750Z,5.97
2022-12-23T12:15:37.233Z,5.85
2022-12-23T12:21:04.913Z,5.65
2022-12-23T12:26:08.289Z,5.50
2022-12-23T12:31:29.323Z,6.00
2022-12-23T12:36:37.108Z,6.03
2022-12-23T12:41:39.753Z,6.57
2022-12-23T12:46:45.032Z,5.70
2022-12-23T12:51:55.273Z,6.05
2022-12-23T12:56:57.579Z,6.38
2022-12-23T13:02:02.300Z,6.13
2022-12-23T13:07:13.588Z,6.15
2022-12-23T13:12:18.060Z,6.53
2022-12-23T13:17:22.207Z,5.20
2022-12-23T13:22:32.291Z,5.28
2022-12-23T13:27:33.981Z,4.90
2022-12-23T13:32:44.334Z,5.60
2022-12-23T13:37:51.504Z,5.72
2022-12-23T13:42:55.928Z,6.35
2022-12-23T13:48:07.953Z,4.30
2022-12-23T13:53:16.413Z,4.45
2022-12-23T13:58:24.772Z,4.97
2022-12-23T14:03:34.705Z,4.47
2022-12-23T14:08:42.504Z,5.05
2022-12-23T14:13:45.812Z,4.60
2022-12-23T14:19:03.445Z,4.50
2022-12-23T14:24:23.515Z,3.80
2022-12-23T14:29:40.467Z,4.63
2022-12-23T14:35:01.794Z,4.68
2022-12-23T14:40:22.168Z,4.90
2022-12-23T14:45:35.408Z,5.90
2022-12-23T14:50:41.780Z,6.00
2022-12-23T14:55:45.048Z,6.82
2022-12-23T15:00:47.830Z,6.97
2022-12-23T15:05:51.082Z,6.70
2022-12-23T15:10:53.575Z,6.00
2022-12-23T15:16:01.335Z,6.05
2022-12-23T15:21:12.613Z,6.28
2022-12-23T15:26:14.070Z,6.30
2022-12-23T15:31:39.458Z,7.22
2022-12-23T15:36:42.772Z,8.00
2022-12-23T15:41:45.043Z,7.57
2022-12-23T15:46:46.489Z,8.00
2022-12-23T15:52:09.707Z,7.40
2022-12-23T15:57:17.863Z,6.95
2022-12-23T16:02:59.833Z,6.93
2022-12-23T16:08:19.362Z,6.53
2022-12-23T16:13:25.462Z,7.47
2022-12-23T16:18:31.707Z,5.75
2022-12-23T16:23:34.895Z,5.70
2022-12-23T16:28:39.377Z,5.78
2022-12-23T16:33:43.532Z,5.82
2022-12-23T16:38:47.335Z,5.97
2022-12-23T16:43:52.470Z,6.25
2022-12-23T16:48:56.052Z,6.03
2022-12-23T16:53:58.103Z,6.00
2022-12-23T16:58:59.571Z,6.47
2022-12-23T17:04:01.075Z,5.47
2022-12-23T17:09:02.758Z,6.65
2022-12-23T17:14:09.240Z,5.97
2022-12-23T17:19:12.042Z,6.18
2022-12-23T17:24:23.406Z,6.72
2022-12-23T17:29:24.880Z,6.40
2022-12-23T17:34:26.580Z,7.43
2022-12-23T17:39:28.033Z,7.20
2022-12-23T17:44:29.434Z,8.52
2022-12-23T17:49:30.844Z,8.23
2022-12-23T17:54:32.396Z,8.10
2022-12-23T17:59:34.042Z,9.02
2022-12-23T18:04:35.481Z,8.45
2022-12-23T18:09:36.895Z,7.10
2022-12-23T18:14:38.449Z,5.93
2022-12-23T18:19:39.860Z,5.38
2022-12-23T18:24:41.284Z,5.53
2022-12-23T18:29:43.140Z,5.50
2022-12-23T18:34:44.548Z,6.40
2022-12-23T18:39:45.978Z,7.45
2022-12-23T18:44:50.972Z,6.80
2022-12-23T18:49:52.959Z,7.85
2022-12-23T18:54:54.469Z,6.68
2022-12-23T18:59:55.932Z,8.93
2022-12-23T19:04:57.480Z,7.60
2022-12-23T19:09:58.988Z,7.40
2022-12-23T19:15:00.502Z,7.75
2022-12-23T19:20:01.954Z,7.50
2022-12-23T19:25:06.375Z,6.47
2022-12-23T19:30:09.270Z,7.50
2022-12-23T19:35:14.055Z,6.53
2022-12-23T19:40:15.839Z,7.28
2022-12-23T19:45:17.462Z,5.90
2022-12-23T19:50:20.035Z,4.45
2022-12-23T19:55:21.778Z,5.13
2022-12-23T20:00:23.316Z,3.28
2022-12-23T20:05:25.105Z,3.67
2022-12-23T20:10:26.606Z,5.00
2022-12-23T20:15:28.096Z,4.78
2022-12-23T20:20:29.579Z,5.47
2022-12-23T20:25:31.082Z,5.10
2022-12-23T20:30:32.724Z,6.88
2022-12-23T20:35:34.375Z,4.93
2022-12-23T20:40:35.836Z,5.45
2022-12-23T20:45:37.286Z,8.52
2022-12-23T20:50:41.916Z,6.75
2022-12-23T20:55:43.672Z,6.53
2022-12-23T21:00:45.368Z,6.05
2022-12-23T21:05:46.777Z,6.22
2022-12-23T21:10:52.432Z,6.38
2022-12-23T21:15:54.130Z,6.63
2022-12-23T21:21:03.163Z,7.13
2022-12-23T21:26:08.819Z,6.70
2022-12-23T21:31:10.421Z,8.00
2022-12-23T21:36:17.847Z,7.07
2022-12-23T21:41:22.708Z,8.20
2022-12-23T21:46:24.678Z,9.68
2022-12-23T21:51:30.439Z,13.40
2022-12-23T21:56:36.499Z,10.73
2022-12-23T22:01:38.114Z,9.40
2022-12-23T22:06:41.317Z,9.18
2022-12-23T22:11:42.820Z,8.88
2022-12-23T22:16:44.343Z,8.48
2022-12-23T22:21:45.856Z,8.40
2022-12-23T22:26:47.312Z,9.63
2022-12-23T22:31:49.595Z,10.88
2022-12-23T22:36:51.233Z,10.88
2022-12-23T22:41:52.900Z,10.45
2022-12-23T22:46:54.342Z,10.38
2022-12-23T22:51:55.992Z,7.70
2022-12-23T22:56:57.483Z,5.63
2022-12-23T23:01:59.024Z,5.20
2022-12-23T23:07:00.487Z,5.00
2022-12-23T23:12:01.880Z,4.93
2022-12-23T23:17:03.334Z,4.55
2022-12-23T23:22:04.847Z,4.50
2022-12-23T23:27:06.927Z,3.90
2022-12-23T23:32:08.531Z,3.35
2022-12-23T23:37:10.496Z,3.13
2022-12-23T23:42:11.994Z,3.55
2022-12-23T23:47:13.426Z,4.63
2022-12-23T23:52:14.893Z,5.22
2022-12-23T23:57:16.647Z,5.68
